NTAATNCM

Guest
Details From NTAA - Faaa
To TNCM - St Maarten - Princess Juliana Intl
Flight Number -
Tags Generated
Created
Modified
Stats Distance 5,537 nm / 10,255 km
Max Altitude 0 ft / 0 m
Waypoints 7
Social Downloads 1
Likes 0
Share VATSIM

Download

Looking for another format? Having issues loading an existing format? Contact us
Advertisement - Login to hide

Notes

Generated

Route

NTAA RAMON OROSA BEROX DAKES PJM02 TNCM

ID Type Via Altitude Latitude Longitude Leg Dist Tot Dist Heading (true) Name
O NTAA APT - 0 ft / 0 m -17.56288˚ -149.62043˚ - 0 nm - -
RAMON FIX - 0 ft / 0 m 10.06791˚ -84.42147˚ 4207 nm 4207 nm 72° / 67° -
OROSA FIX - 0 ft / 0 m 14.31167˚ -74.00000˚ 662 nm 4870 nm 66° / 69° -
BEROX FIX - 0 ft / 0 m 16.00000˚ -70.06667˚ 249 nm 5119 nm 66° / 67° -
DAKES FIX - 0 ft / 0 m 17.04805˚ -66.99962˚ 187 nm 5307 nm 70° / 71° -
PJM02 FIX - 0 ft / 0 m 18.03461˚ -63.15309˚ 228 nm 5535 nm 74° / 76° -
O TNCM APT - 0 ft / 0 m 18.03937˚ -63.11961˚ 1 nm 5537 nm 81° / 82° -

Altitude Profile

Advertisement - Login to hide

Weather


0- 5 10 15 20 25 30 35+ Temperature / ° C

Clouds and Precipitation
Forecast for 2018-05-22 12:00 UTC. Updated an hour ago

Ground ~20,000 ft ~40,000 ft Winds

NTAA

Details ICAO NTAA (PPT)
Name Faaa
Region French Polynesia
Timezone Pacific/Tahiti (UTC-10.0)
Stats Elevation 5 ft / 2 m (AMSL)
Location -17.553765° -149.607255°
Runways 1
Magnetic Variation 12.876° E

METAR

NTAA 221230Z 12004KT 9999 FEW023 23/20 Q1013 NOSIG

Decode

TAF

TAF NTAA 221100Z 2212/2318 VRB05KT 9999 FEW025 PROB40 TEMPO 2222/2302 28010KT PROB30 TEMPO 2309/2318 07012G22KT 4500 SHRA SCT020 BKN045

Decode

Departure Runways

ID Width Length Bearing (true) Bearing (mag) Surface Threshold Offset Overrun Length
04 148 ft / 45 m 11,323 ft / 3,451 m 54.04° 41.16° Asphalt 1,099 ft / 335 m 0 ft / 0 m
22 148 ft / 45 m 11,323 ft / 3,451 m 234.03° 221.15° Asphalt 479 ft / 146 m 0 ft / 0 m

TNCM

Details ICAO TNCM (SXM)
Name St Maarten - Princess Juliana Intl
Region Caribbean Netherlands, Aruba, Curaçao, Sint Maarten
Timezone Unknown (UTC+0.0)
Stats Elevation 12 ft / 4 m (AMSL)
Location 18.040889° -63.108974°
Runways 1
Magnetic Variation 14.337° W

METAR

TNCM 221200Z 09012KT 060V130 9999 BKN019 27/21 Q1018 NOSIG RMK A3006

Decode

TAF

TAF TNCM 221141Z 2212/2312 09012KT P6SM VCSH SCT020 TEMPO 2212/2213 SHRA BKN018

Decode

Destination Runways

ID Width Length Bearing (true) Bearing (mag) Surface Threshold Offset Overrun Length
10 148 ft / 45 m 7,464 ft / 2,275 m 81.43° 95.77° Asphalt 0 ft / 0 m 151 ft / 46 m
28 148 ft / 45 m 7,464 ft / 2,275 m 261.44° 275.78° Asphalt 397 ft / 121 m 0 ft / 0 m

Popular Alternatives